createdAt,value
2023-02-23T00:00:02.979Z,32.50
2023-02-23T00:01:02.820Z,32.50
2023-02-23T00:02:02.298Z,33.20
2023-02-23T00:03:02.094Z,33.20
2023-02-23T00:04:01.758Z,33.20
2023-02-23T00:05:02.193Z,33.20
2023-02-23T00:06:02.170Z,33.20
2023-02-23T00:07:02.472Z,36.10
2023-02-23T00:08:02.301Z,36.10
2023-02-23T00:09:02.570Z,36.10
2023-02-23T00:10:02.274Z,36.10
2023-02-23T00:11:02.347Z,36.10
2023-02-23T00:12:02.546Z,30.80
2023-02-23T00:13:02.622Z,30.80
2023-02-23T00:14:02.584Z,30.80
2023-02-23T00:15:02.774Z,30.80
2023-02-23T00:16:02.599Z,30.80
2023-02-23T00:17:02.428Z,35.90
2023-02-23T00:18:03.035Z,35.90
2023-02-23T00:19:02.502Z,35.90
2023-02-23T00:20:02.782Z,35.90
2023-02-23T00:21:02.652Z,35.90
2023-02-23T00:22:02.720Z,39.50
2023-02-23T00:23:02.461Z,39.50
2023-02-23T00:24:03.076Z,39.50
2023-02-23T00:25:03.385Z,39.50
2023-02-23T00:26:02.466Z,39.50
2023-02-23T00:27:02.032Z,32.70
2023-02-23T00:28:02.076Z,32.70
2023-02-23T00:29:02.366Z,32.70
2023-02-23T00:30:02.319Z,32.70
2023-02-23T00:31:02.132Z,32.70
2023-02-23T00:32:02.907Z,32.20
2023-02-23T00:33:02.697Z,32.20
2023-02-23T00:34:02.683Z,32.20
2023-02-23T00:35:03.163Z,32.20
2023-02-23T00:36:02.970Z,32.20
2023-02-23T00:37:01.994Z,32.50
2023-02-23T00:38:01.896Z,32.50
2023-02-23T00:39:01.789Z,32.50
2023-02-23T00:40:02.153Z,32.50
2023-02-23T00:41:02.057Z,32.50
2023-02-23T00:42:03.198Z,30.60
2023-02-23T00:43:03.082Z,30.60
2023-02-23T00:44:02.803Z,30.60
2023-02-23T00:45:03.034Z,30.60
2023-02-23T00:46:03.146Z,30.60
2023-02-23T00:47:02.808Z,31.20
2023-02-23T00:48:02.739Z,31.20
2023-02-23T00:49:03.001Z,31.20
2023-02-23T00:50:02.656Z,31.20
2023-02-23T00:51:03.099Z,31.20
2023-02-23T00:52:01.885Z,31.00
2023-02-23T00:53:02.241Z,31.00
2023-02-23T00:54:02.074Z,31.00
2023-02-23T00:55:01.849Z,31.00
2023-02-23T00:56:02.346Z,31.00
2023-02-23T00:57:02.277Z,32.60
2023-02-23T00:58:02.658Z,32.60
2023-02-23T00:59:02.177Z,32.60
2023-02-23T01:00:02.792Z,32.60
2023-02-23T01:01:02.404Z,32.60
2023-02-23T01:02:02.076Z,32.70
2023-02-23T01:03:01.621Z,32.70
2023-02-23T01:04:01.835Z,32.70
2023-02-23T01:05:01.786Z,32.70
2023-02-23T01:06:01.775Z,32.70
2023-02-23T01:07:02.429Z,31.00
2023-02-23T01:08:02.426Z,31.00
2023-02-23T01:09:02.212Z,31.00
2023-02-23T01:10:02.506Z,31.00
2023-02-23T01:11:02.255Z,31.00
2023-02-23T01:12:02.897Z,28.90
2023-02-23T01:13:03.067Z,28.90
2023-02-23T01:14:02.728Z,28.90
2023-02-23T01:15:02.568Z,28.90
2023-02-23T01:16:02.760Z,28.90
2023-02-23T01:17:02.556Z,31.90
2023-02-23T01:18:02.454Z,31.90
2023-02-23T01:19:02.230Z,31.90
2023-02-23T01:20:02.074Z,31.90
2023-02-23T01:21:02.279Z,31.90
2023-02-23T01:22:02.863Z,34.00
2023-02-23T01:23:02.746Z,34.00
2023-02-23T01:24:02.711Z,34.00
2023-02-23T01:25:02.560Z,34.00
2023-02-23T01:26:03.099Z,34.00
2023-02-23T01:27:02.447Z,31.40
2023-02-23T01:28:02.354Z,31.40
2023-02-23T01:29:02.118Z,31.40
2023-02-23T01:30:02.916Z,31.40
2023-02-23T01:31:02.577Z,31.40
2023-02-23T01:32:04.695Z,30.80
2023-02-23T01:33:02.601Z,30.80
2023-02-23T01:34:02.372Z,30.80
2023-02-23T01:35:02.422Z,30.80
2023-02-23T01:36:02.538Z,30.80
2023-02-23T01:37:02.425Z,34.40
2023-02-23T01:38:02.582Z,34.40
2023-02-23T01:39:02.500Z,34.40
2023-02-23T01:40:02.619Z,34.40
2023-02-23T01:41:02.502Z,34.40
2023-02-23T01:42:02.010Z,31.80
2023-02-23T01:43:02.035Z,31.80
2023-02-23T01:44:01.936Z,31.80
2023-02-23T01:45:02.005Z,31.80
2023-02-23T01:46:01.837Z,31.80
2023-02-23T01:47:02.617Z,31.30
2023-02-23T01:48:02.333Z,31.30
2023-02-23T01:49:02.627Z,31.30
2023-02-23T01:50:02.613Z,31.30
2023-02-23T01:51:02.230Z,31.30
2023-02-23T01:52:02.755Z,31.70
2023-02-23T01:53:02.660Z,31.70
2023-02-23T01:54:02.533Z,31.70
2023-02-23T01:55:02.912Z,31.70
2023-02-23T01:56:02.378Z,31.70
2023-02-23T01:57:01.960Z,32.00
2023-02-23T01:58:01.620Z,32.00
2023-02-23T01:59:02.012Z,32.00
2023-02-23T02:00:02.293Z,32.00
2023-02-23T02:01:02.307Z,32.00
2023-02-23T02:02:02.342Z,29.40
2023-02-23T02:03:02.274Z,29.40
2023-02-23T02:04:02.736Z,29.40
2023-02-23T02:05:02.724Z,29.40
2023-02-23T02:06:02.411Z,29.40
2023-02-23T02:07:02.508Z,28.70
2023-02-23T02:08:02.489Z,28.70
2023-02-23T02:09:02.662Z,28.70
2023-02-23T02:10:02.500Z,28.70
2023-02-23T02:11:02.302Z,28.70
2023-02-23T02:12:02.442Z,28.30
2023-02-23T02:13:02.926Z,28.30
2023-02-23T02:14:02.400Z,28.30
2023-02-23T02:15:02.479Z,28.30
2023-02-23T02:16:03.026Z,28.30
2023-02-23T02:17:03.182Z,29.90
2023-02-23T02:18:02.914Z,29.90
2023-02-23T02:19:02.832Z,29.90
2023-02-23T02:20:03.472Z,29.90
2023-02-23T02:21:03.134Z,29.90
2023-02-23T02:22:02.528Z,33.20
2023-02-23T02:23:03.007Z,33.20
2023-02-23T02:24:02.830Z,33.20
2023-02-23T02:25:02.666Z,33.20
2023-02-23T02:26:03.067Z,33.20
2023-02-23T02:27:03.439Z,33.00
2023-02-23T02:28:03.008Z,33.00
2023-02-23T02:29:02.806Z,33.00
2023-02-23T02:30:03.030Z,33.00
2023-02-23T02:31:02.976Z,33.00
2023-02-23T02:32:03.023Z,32.80
2023-02-23T02:33:02.449Z,32.80
2023-02-23T02:34:02.609Z,32.80
2023-02-23T02:35:02.391Z,32.80
2023-02-23T02:36:02.308Z,32.80
2023-02-23T02:37:03.177Z,32.60
2023-02-23T02:38:02.993Z,32.60
2023-02-23T02:39:02.786Z,32.60
2023-02-23T02:40:02.978Z,32.60
2023-02-23T02:41:02.934Z,32.60
2023-02-23T02:42:03.109Z,35.80
2023-02-23T02:43:03.463Z,35.80
2023-02-23T02:44:03.086Z,35.80
2023-02-23T02:45:03.262Z,35.80
2023-02-23T02:46:03.185Z,35.80
2023-02-23T02:47:02.536Z,33.30
2023-02-23T02:48:02.796Z,33.30
2023-02-23T02:49:02.157Z,33.30
2023-02-23T02:50:02.751Z,33.30
2023-02-23T02:51:02.295Z,33.30
2023-02-23T02:52:02.357Z,30.10
2023-02-23T02:53:02.804Z,30.10
2023-02-23T02:54:02.612Z,30.10
2023-02-23T02:55:02.438Z,30.10
2023-02-23T02:56:02.354Z,30.10
2023-02-23T02:57:02.747Z,31.90
2023-02-23T02:58:02.417Z,31.90
2023-02-23T02:59:02.304Z,31.90
2023-02-23T03:00:02.550Z,31.90
2023-02-23T03:01:02.661Z,31.90
2023-02-23T03:02:02.988Z,32.40
2023-02-23T03:03:03.479Z,32.40
2023-02-23T03:04:02.791Z,32.40
2023-02-23T03:05:03.246Z,32.40
2023-02-23T03:06:02.620Z,32.40
2023-02-23T03:07:03.604Z,33.80
2023-02-23T03:08:03.480Z,33.80
2023-02-23T03:09:03.452Z,33.80
2023-02-23T03:10:03.325Z,33.80
2023-02-23T03:11:03.872Z,33.80
2023-02-23T03:12:02.664Z,30.40
2023-02-23T03:13:03.034Z,30.40
2023-02-23T03:14:02.914Z,30.40
2023-02-23T03:15:02.536Z,30.40
2023-02-23T03:16:02.963Z,30.40
2023-02-23T03:17:02.542Z,29.30
2023-02-23T03:18:02.555Z,29.30
2023-02-23T03:19:02.611Z,29.30
2023-02-23T03:20:03.216Z,29.30
2023-02-23T03:21:02.857Z,29.30
2023-02-23T03:22:02.769Z,32.10
2023-02-23T03:23:03.489Z,32.10
2023-02-23T03:24:03.205Z,32.10
2023-02-23T03:25:03.349Z,32.10
2023-02-23T03:26:03.231Z,32.10
2023-02-23T03:27:02.860Z,35.70
2023-02-23T03:28:03.529Z,35.70
2023-02-23T03:29:03.252Z,35.70
2023-02-23T03:30:03.028Z,35.70
2023-02-23T03:31:03.134Z,35.70
2023-02-23T03:32:03.178Z,35.60
2023-02-23T03:33:03.144Z,35.60
2023-02-23T03:34:03.524Z,35.60
2023-02-23T03:35:03.617Z,35.60
2023-02-23T03:36:03.644Z,35.60
2023-02-23T03:37:03.360Z,35.90
2023-02-23T03:38:03.489Z,35.90
2023-02-23T03:39:03.546Z,35.90
2023-02-23T03:40:03.233Z,35.90
2023-02-23T03:41:03.852Z,35.90
2023-02-23T03:42:02.543Z,33.50
2023-02-23T03:43:02.841Z,33.50
2023-02-23T03:44:02.579Z,33.50
2023-02-23T03:45:03.132Z,33.50
2023-02-23T03:46:03.031Z,33.50
2023-02-23T03:47:02.950Z,32.30
2023-02-23T03:48:02.582Z,32.30
2023-02-23T03:49:03.088Z,32.30
2023-02-23T03:50:02.823Z,32.30
2023-02-23T03:51:02.917Z,32.30
2023-02-23T03:52:02.928Z,34.70
2023-02-23T03:53:03.499Z,34.70
2023-02-23T03:54:03.208Z,34.70
2023-02-23T03:55:03.376Z,34.70
2023-02-23T03:56:02.988Z,34.70
2023-02-23T03:57:03.351Z,31.70
2023-02-23T03:58:03.525Z,31.70
2023-02-23T03:59:03.261Z,31.70
2023-02-23T04:00:03.043Z,31.70
2023-02-23T04:01:02.887Z,31.70
2023-02-23T04:02:02.635Z,34.40
2023-02-23T04:03:02.372Z,34.40
2023-02-23T04:04:02.460Z,34.40
2023-02-23T04:05:02.996Z,34.40
2023-02-23T04:06:02.820Z,34.40
2023-02-23T04:07:03.000Z,36.80
2023-02-23T04:08:02.606Z,36.80
2023-02-23T04:09:02.942Z,36.80
2023-02-23T04:10:02.673Z,36.80
2023-02-23T04:11:02.897Z,36.80
2023-02-23T04:12:02.709Z,34.90
2023-02-23T04:13:03.520Z,34.90
2023-02-23T04:14:03.133Z,34.90
2023-02-23T04:15:02.849Z,34.90
2023-02-23T04:16:02.666Z,34.90
2023-02-23T04:17:02.067Z,38.30
2023-02-23T04:18:02.314Z,38.30
2023-02-23T04:19:02.214Z,38.30
2023-02-23T04:20:01.940Z,38.30
2023-02-23T04:21:02.228Z,38.30
2023-02-23T04:22:02.155Z,37.40
2023-02-23T04:23:02.064Z,37.40
2023-02-23T04:24:02.421Z,37.40
2023-02-23T04:25:02.499Z,37.40
2023-02-23T04:26:02.118Z,37.40
2023-02-23T04:27:02.440Z,35.10
2023-02-23T04:28:03.010Z,35.10
2023-02-23T04:29:02.562Z,35.10
2023-02-23T04:30:02.768Z,35.10
2023-02-23T04:31:02.615Z,35.10
2023-02-23T04:32:02.194Z,33.90
2023-02-23T04:33:02.074Z,33.90
2023-02-23T04:34:01.984Z,33.90
2023-02-23T04:35:02.542Z,33.90
2023-02-23T04:36:02.338Z,33.90
2023-02-23T04:37:02.089Z,36.30
2023-02-23T04:38:02.561Z,36.30
2023-02-23T04:39:02.018Z,36.30
2023-02-23T04:40:02.039Z,36.30
2023-02-23T04:41:01.902Z,36.30
2023-02-23T04:42:02.605Z,34.00
2023-02-23T04:43:02.413Z,34.00
2023-02-23T04:44:02.392Z,34.00
2023-02-23T04:45:02.838Z,34.00
2023-02-23T04:46:02.651Z,34.00
2023-02-23T04:47:02.442Z,34.80
2023-02-23T04:48:02.931Z,34.80
2023-02-23T04:49:02.667Z,34.80
2023-02-23T04:50:02.737Z,34.80
2023-02-23T04:51:02.794Z,34.80
2023-02-23T04:52:02.661Z,32.70
2023-02-23T04:53:02.813Z,32.70
2023-02-23T04:54:02.683Z,32.70
2023-02-23T04:55:03.124Z,32.70
2023-02-23T04:56:03.069Z,32.70
2023-02-23T04:57:03.205Z,34.40
2023-02-23T04:58:03.009Z,34.40
2023-02-23T04:59:02.794Z,34.40
2023-02-23T05:00:02.747Z,34.40
2023-02-23T05:01:03.034Z,34.40
2023-02-23T05:02:02.057Z,33.70
2023-02-23T05:03:01.993Z,33.70
2023-02-23T05:04:01.966Z,33.70
2023-02-23T05:05:01.838Z,33.70
2023-02-23T05:06:01.986Z,33.70
2023-02-23T05:07:02.365Z,37.10
2023-02-23T05:08:02.741Z,37.10
2023-02-23T05:09:02.425Z,37.10
2023-02-23T05:10:02.598Z,37.10
2023-02-23T05:11:02.356Z,37.10
2023-02-23T05:12:01.908Z,34.70
2023-02-23T05:13:02.158Z,34.70
2023-02-23T05:14:01.881Z,34.70
2023-02-23T05:15:02.281Z,34.70
2023-02-23T05:16:02.025Z,34.70
2023-02-23T05:17:02.335Z,34.40
2023-02-23T05:18:02.885Z,34.40
2023-02-23T05:19:02.772Z,34.40
2023-02-23T05:20:02.548Z,34.40
2023-02-23T05:21:02.569Z,34.40
2023-02-23T05:22:02.158Z,34.40
2023-02-23T05:23:01.956Z,34.40
2023-02-23T05:24:02.252Z,34.40
2023-02-23T05:25:02.136Z,34.40
2023-02-23T05:26:02.227Z,34.40
2023-02-23T05:27:02.575Z,34.40
2023-02-23T05:28:02.821Z,34.40
2023-02-23T05:29:02.590Z,34.40
2023-02-23T05:30:03.076Z,34.40
2023-02-23T05:31:02.849Z,34.40
2023-02-23T05:32:02.284Z,37.60
2023-02-23T05:33:02.222Z,37.60
2023-02-23T05:34:02.238Z,37.60
2023-02-23T05:35:02.363Z,37.60
2023-02-23T05:36:02.619Z,37.60
2023-02-23T05:37:02.476Z,42.40
2023-02-23T05:38:02.967Z,42.40
2023-02-23T05:39:02.848Z,42.40
2023-02-23T05:40:02.574Z,42.40
2023-02-23T05:41:03.116Z,42.40
2023-02-23T05:42:02.419Z,43.30
2023-02-23T05:43:02.021Z,43.30
2023-02-23T05:44:02.431Z,43.30
2023-02-23T05:45:02.130Z,43.30
2023-02-23T05:46:02.154Z,43.30
2023-02-23T05:47:02.534Z,46.40
2023-02-23T05:48:02.622Z,46.40
2023-02-23T05:49:02.439Z,46.40
2023-02-23T05:50:02.673Z,46.40
2023-02-23T05:51:02.987Z,46.40
2023-02-23T05:52:02.299Z,49.50
2023-02-23T05:53:01.896Z,49.50
2023-02-23T05:54:01.855Z,49.50
2023-02-23T05:55:02.297Z,49.50
2023-02-23T05:56:01.976Z,49.50
2023-02-23T05:57:02.680Z,61.60
2023-02-23T05:58:02.284Z,61.60
2023-02-23T05:59:02.626Z,61.60
2023-02-23T06:00:02.406Z,61.60
2023-02-23T06:01:02.697Z,61.60
2023-02-23T06:02:02.241Z,62.90
2023-02-23T06:03:02.298Z,62.90
2023-02-23T06:04:03.123Z,62.90
2023-02-23T06:05:02.302Z,62.90
2023-02-23T06:06:02.182Z,62.90
2023-02-23T06:07:02.844Z,68.90
2023-02-23T06:08:02.437Z,68.90
2023-02-23T06:09:02.504Z,68.90
2023-02-23T06:10:02.770Z,68.90
2023-02-23T06:11:02.461Z,68.90
2023-02-23T06:12:03.068Z,73.60
2023-02-23T06:13:03.111Z,73.60
2023-02-23T06:14:03.128Z,73.60
2023-02-23T06:15:02.894Z,73.60
2023-02-23T06:16:02.632Z,73.60
2023-02-23T06:17:01.927Z,77.30
2023-02-23T06:18:01.910Z,77.30
2023-02-23T06:19:01.927Z,77.30
2023-02-23T06:20:02.057Z,77.30
2023-02-23T06:21:02.388Z,77.30
2023-02-23T06:22:02.888Z,76.90
2023-02-23T06:23:02.650Z,76.90
2023-02-23T06:24:02.735Z,76.90
2023-02-23T06:25:02.645Z,76.90
2023-02-23T06:26:02.335Z,76.90
2023-02-23T06:27:03.029Z,82.50
2023-02-23T06:28:02.890Z,82.50
2023-02-23T06:29:02.469Z,82.50
2023-02-23T06:30:02.894Z,82.50
2023-02-23T06:31:02.568Z,82.50
2023-02-23T06:32:02.833Z,89.20
2023-02-23T06:33:02.980Z,89.20
2023-02-23T06:34:03.102Z,89.20
2023-02-23T06:35:02.960Z,89.20
2023-02-23T06:36:02.952Z,89.20
2023-02-23T06:37:02.405Z,85.00
2023-02-23T06:38:02.100Z,85.00
2023-02-23T06:39:01.964Z,85.00
2023-02-23T06:40:02.341Z,85.00
2023-02-23T06:41:02.026Z,85.00
2023-02-23T06:42:02.897Z,83.10
2023-02-23T06:43:02.496Z,83.10
2023-02-23T06:44:02.683Z,83.10
2023-02-23T06:45:02.632Z,83.10
2023-02-23T06:46:02.630Z,83.10
2023-02-23T06:47:01.801Z,82.50
2023-02-23T06:48:01.872Z,82.50
2023-02-23T06:49:01.908Z,82.50
2023-02-23T06:50:01.994Z,82.50
2023-02-23T06:51:02.164Z,82.50
2023-02-23T06:52:03.046Z,81.30
2023-02-23T06:53:03.138Z,81.30
2023-02-23T06:54:02.778Z,81.30
2023-02-23T06:55:02.679Z,81.30
2023-02-23T06:56:02.451Z,81.30
2023-02-23T06:57:02.427Z,81.10
2023-02-23T06:58:02.341Z,81.10
2023-02-23T06:59:02.165Z,81.10
2023-02-23T07:00:02.459Z,81.10
2023-02-23T07:01:02.107Z,81.10
2023-02-23T07:02:02.697Z,75.50
2023-02-23T07:03:02.648Z,75.50
2023-02-23T07:04:02.371Z,75.50
2023-02-23T07:05:02.373Z,75.50
2023-02-23T07:06:02.606Z,75.50
2023-02-23T07:07:02.296Z,78.30
2023-02-23T07:08:01.687Z,78.30
2023-02-23T07:09:01.936Z,78.30
2023-02-23T07:10:01.987Z,78.30
2023-02-23T07:11:01.982Z,78.30
2023-02-23T07:12:02.548Z,78.60
2023-02-23T07:13:02.698Z,78.60
2023-02-23T07:14:02.736Z,78.60
2023-02-23T07:15:02.732Z,78.60
2023-02-23T07:16:03.069Z,78.60
2023-02-23T07:17:03.114Z,76.30
2023-02-23T07:18:02.667Z,76.30
2023-02-23T07:19:02.803Z,76.30
2023-02-23T07:20:02.969Z,76.30
2023-02-23T07:21:02.417Z,76.30
2023-02-23T07:22:02.311Z,75.80
2023-02-23T07:23:02.518Z,75.80
2023-02-23T07:24:02.584Z,75.80
2023-02-23T07:25:02.058Z,75.80
2023-02-23T07:26:02.678Z,75.80
2023-02-23T07:27:02.894Z,74.30
2023-02-23T07:28:02.695Z,74.30
2023-02-23T07:29:02.809Z,74.30
2023-02-23T07:30:03.210Z,74.30
2023-02-23T07:31:03.039Z,74.30
2023-02-23T07:32:02.398Z,73.20
2023-02-23T07:33:02.766Z,73.20
2023-02-23T07:34:02.260Z,73.20
2023-02-23T07:35:02.560Z,73.20
2023-02-23T07:36:02.433Z,73.20
2023-02-23T07:37:02.769Z,69.70
2023-02-23T07:38:02.473Z,69.70
2023-02-23T07:39:02.921Z,69.70
2023-02-23T07:40:02.883Z,69.70
2023-02-23T07:41:02.875Z,69.70
2023-02-23T07:42:02.186Z,68.50
2023-02-23T07:43:02.214Z,68.50
2023-02-23T07:44:02.412Z,68.50
2023-02-23T07:45:02.170Z,68.50
2023-02-23T07:46:02.262Z,68.50
2023-02-23T07:47:02.140Z,65.00
2023-02-23T07:48:02.334Z,65.00
2023-02-23T07:49:02.248Z,65.00
2023-02-23T07:50:02.465Z,65.00
2023-02-23T07:51:02.448Z,65.00
2023-02-23T07:52:02.273Z,65.60
2023-02-23T07:53:02.726Z,65.60
2023-02-23T07:54:02.432Z,65.60
2023-02-23T07:55:02.586Z,65.60
2023-02-23T07:56:02.330Z,65.60
2023-02-23T07:57:02.940Z,63.20
2023-02-23T07:58:03.215Z,63.20
2023-02-23T07:59:03.090Z,63.20
2023-02-23T08:00:02.988Z,63.20
2023-02-23T08:01:03.202Z,63.20
2023-02-23T08:02:02.745Z,66.80
2023-02-23T08:03:02.750Z,66.80
2023-02-23T08:04:02.210Z,66.80
2023-02-23T08:05:02.346Z,66.80
2023-02-23T08:06:02.357Z,66.80
2023-02-23T08:07:02.284Z,66.80
2023-02-23T08:08:01.884Z,66.80
2023-02-23T08:09:02.243Z,66.80
2023-02-23T08:10:02.327Z,66.80
2023-02-23T08:11:02.317Z,66.80
2023-02-23T08:12:02.882Z,69.30
2023-02-23T08:13:03.156Z,69.30
2023-02-23T08:14:02.723Z,69.30
2023-02-23T08:15:02.953Z,69.30
2023-02-23T08:16:03.118Z,69.30
2023-02-23T08:17:02.277Z,69.50
2023-02-23T08:18:02.318Z,69.50
2023-02-23T08:19:01.950Z,69.50
2023-02-23T08:20:02.050Z,69.50
2023-02-23T08:21:02.028Z,69.50
2023-02-23T08:22:02.281Z,66.90
2023-02-23T08:23:02.647Z,66.90
2023-02-23T08:24:02.362Z,66.90
2023-02-23T08:25:02.769Z,66.90
2023-02-23T08:26:02.462Z,66.90
2023-02-23T08:27:02.777Z,69.00
2023-02-23T08:28:04.586Z,69.00
2023-02-23T08:29:02.567Z,69.00
2023-02-23T08:30:02.592Z,69.00
2023-02-23T08:31:03.076Z,69.00
2023-02-23T08:32:03.163Z,71.30
2023-02-23T08:33:02.696Z,71.30
2023-02-23T08:34:02.625Z,71.30
2023-02-23T08:35:02.732Z,71.30
2023-02-23T08:36:02.805Z,71.30
2023-02-23T08:37:02.619Z,68.00
2023-02-23T08:38:02.132Z,68.00
2023-02-23T08:39:02.620Z,68.00
2023-02-23T08:40:02.515Z,68.00
2023-02-23T08:41:02.099Z,68.00
2023-02-23T08:42:03.235Z,66.30
2023-02-23T08:43:02.982Z,66.30
2023-02-23T08:44:03.043Z,66.30
2023-02-23T08:45:03.236Z,66.30
2023-02-23T08:46:03.323Z,66.30
2023-02-23T08:47:02.670Z,67.00
2023-02-23T08:48:02.818Z,67.00
2023-02-23T08:49:02.738Z,67.00
2023-02-23T08:50:02.514Z,67.00
2023-02-23T08:51:02.733Z,67.00
2023-02-23T08:52:01.775Z,73.30
2023-02-23T08:53:01.951Z,73.30
2023-02-23T08:54:02.379Z,73.30
2023-02-23T08:55:01.973Z,73.30
2023-02-23T08:56:02.009Z,73.30
2023-02-23T08:57:02.209Z,71.30
2023-02-23T08:58:01.802Z,71.30
2023-02-23T08:59:02.076Z,71.30
2023-02-23T09:00:02.067Z,71.30
2023-02-23T09:01:02.378Z,71.30
2023-02-23T09:02:02.496Z,67.30
2023-02-23T09:03:03.243Z,67.30
2023-02-23T09:04:02.813Z,67.30
2023-02-23T09:05:03.067Z,67.30
2023-02-23T09:06:02.848Z,67.30
2023-02-23T09:07:02.556Z,65.80
2023-02-23T09:08:02.958Z,65.80
2023-02-23T09:09:03.067Z,65.80
2023-02-23T09:10:02.746Z,65.80
2023-02-23T09:11:02.730Z,65.80
2023-02-23T09:12:02.101Z,65.50
2023-02-23T09:13:02.536Z,65.50
2023-02-23T09:14:02.356Z,65.50
2023-02-23T09:15:02.685Z,65.50
2023-02-23T09:16:02.547Z,65.50
2023-02-23T09:17:02.371Z,66.40
2023-02-23T09:18:02.346Z,66.40
2023-02-23T09:19:02.786Z,66.40
2023-02-23T09:20:02.617Z,66.40
2023-02-23T09:21:02.857Z,66.40
2023-02-23T09:22:02.751Z,69.40
2023-02-23T09:23:02.941Z,69.40
2023-02-23T09:24:02.692Z,69.40
2023-02-23T09:25:02.795Z,69.40
2023-02-23T09:26:03.342Z,69.40
2023-02-23T09:27:02.005Z,63.20
2023-02-23T09:28:02.394Z,63.20
2023-02-23T09:29:02.443Z,63.20
2023-02-23T09:30:02.264Z,63.20
2023-02-23T09:31:02.139Z,63.20
2023-02-23T09:32:02.392Z,67.90
2023-02-23T09:33:02.852Z,67.90
2023-02-23T09:34:02.584Z,67.90
2023-02-23T09:35:02.752Z,67.90
2023-02-23T09:36:02.285Z,67.90
2023-02-23T09:37:02.026Z,64.60
2023-02-23T09:38:02.127Z,64.60
2023-02-23T09:39:02.145Z,64.60
2023-02-23T09:40:01.951Z,64.60
2023-02-23T09:41:01.962Z,64.60
2023-02-23T09:42:02.324Z,63.20
2023-02-23T09:43:02.465Z,63.20
2023-02-23T09:44:02.217Z,63.20
2023-02-23T09:45:02.178Z,63.20
2023-02-23T09:46:02.413Z,63.20
2023-02-23T09:47:02.565Z,60.20
2023-02-23T09:48:02.982Z,60.20
2023-02-23T09:49:02.780Z,60.20
2023-02-23T09:50:02.825Z,60.20
2023-02-23T09:51:02.852Z,60.20
2023-02-23T09:52:02.781Z,62.80
2023-02-23T09:53:03.495Z,62.80
2023-02-23T09:54:02.633Z,62.80
2023-02-23T09:55:02.594Z,62.80
2023-02-23T09:56:02.841Z,62.80
2023-02-23T09:57:02.909Z,65.10
2023-02-23T09:58:02.964Z,65.10
2023-02-23T09:59:03.104Z,65.10
2023-02-23T10:00:03.070Z,65.10
2023-02-23T10:01:03.335Z,65.10
2023-02-23T10:02:02.599Z,59.00
2023-02-23T10:03:01.998Z,59.00
2023-02-23T10:04:02.162Z,59.00
2023-02-23T10:05:02.434Z,59.00
2023-02-23T10:06:01.985Z,59.00
2023-02-23T10:07:03.053Z,62.80
2023-02-23T10:08:03.018Z,62.80
2023-02-23T10:09:03.219Z,62.80
2023-02-23T10:10:03.172Z,62.80
2023-02-23T10:11:02.688Z,62.80
2023-02-23T10:12:03.031Z,66.10
2023-02-23T10:13:03.126Z,66.10
2023-02-23T10:14:03.173Z,66.10
2023-02-23T10:15:03.330Z,66.10
2023-02-23T10:16:02.796Z,66.10
2023-02-23T10:17:02.459Z,69.90
2023-02-23T10:18:03.335Z,69.90
2023-02-23T10:19:02.782Z,69.90
2023-02-23T10:20:02.232Z,69.90
2023-02-23T10:21:02.428Z,69.90
2023-02-23T10:22:02.772Z,67.90
2023-02-23T10:23:02.740Z,67.90
2023-02-23T10:24:02.747Z,67.90
2023-02-23T10:25:02.848Z,67.90
2023-02-23T10:26:02.460Z,67.90
2023-02-23T10:27:01.939Z,65.60
2023-02-23T10:28:01.904Z,65.60
2023-02-23T10:29:02.027Z,65.60
2023-02-23T10:30:02.056Z,65.60
2023-02-23T10:31:02.588Z,65.60
2023-02-23T10:32:02.850Z,67.90
2023-02-23T10:33:02.893Z,67.90
2023-02-23T10:34:02.385Z,67.90
2023-02-23T10:35:02.797Z,67.90
2023-02-23T10:36:12.950Z,67.90
2023-02-23T10:37:03.286Z,66.20
2023-02-23T10:38:03.080Z,66.20
2023-02-23T10:39:03.023Z,66.20
2023-02-23T10:40:02.714Z,66.20
2023-02-23T10:41:02.942Z,66.20
2023-02-23T10:42:03.104Z,64.80
2023-02-23T10:43:02.741Z,64.80
2023-02-23T10:44:15.663Z,64.80
2023-02-23T10:45:03.206Z,64.80
2023-02-23T10:46:02.798Z,64.80
2023-02-23T10:47:02.963Z,61.10
2023-02-23T10:48:03.082Z,61.10
2023-02-23T10:49:02.844Z,61.10
2023-02-23T10:50:02.597Z,61.10
2023-02-23T10:51:03.094Z,61.10
2023-02-23T10:52:03.217Z,61.90
2023-02-23T10:53:03.072Z,61.90
2023-02-23T10:54:07.979Z,61.90
2023-02-23T10:55:03.128Z,61.90
2023-02-23T10:56:03.302Z,61.90
2023-02-23T10:57:02.449Z,60.40
2023-02-23T10:58:02.516Z,60.40
2023-02-23T10:59:02.030Z,60.40
2023-02-23T11:00:02.184Z,60.40
2023-02-23T11:01:02.083Z,60.40
2023-02-23T11:02:03.044Z,60.10
2023-02-23T11:03:02.967Z,60.10
2023-02-23T11:04:06.138Z,60.10
2023-02-23T11:05:02.978Z,60.10
2023-02-23T11:06:02.540Z,60.10
2023-02-23T11:07:03.031Z,62.90
2023-02-23T11:08:03.108Z,62.90
2023-02-23T11:09:03.331Z,62.90
2023-02-23T11:10:03.152Z,62.90
2023-02-23T11:11:02.732Z,62.90
2023-02-23T11:12:03.202Z,67.30
2023-02-23T11:13:03.205Z,67.30
2023-02-23T11:14:03.169Z,67.30
2023-02-23T11:15:02.809Z,67.30
2023-02-23T11:16:03.051Z,67.30
2023-02-23T11:17:02.536Z,62.60
2023-02-23T11:18:02.620Z,62.60
2023-02-23T11:19:02.393Z,62.60
2023-02-23T11:20:02.379Z,62.60
2023-02-23T11:21:02.359Z,62.60
2023-02-23T11:22:02.653Z,65.50
2023-02-23T11:23:14.005Z,65.50
2023-02-23T11:24:02.599Z,65.50
2023-02-23T11:25:02.785Z,65.50
2023-02-23T11:26:02.302Z,65.50
2023-02-23T11:27:03.162Z,67.20
2023-02-23T11:28:02.979Z,67.20
2023-02-23T11:29:03.183Z,67.20
2023-02-23T11:30:02.516Z,67.20
2023-02-23T11:31:02.870Z,67.20
2023-02-23T11:32:06.771Z,66.30
2023-02-23T11:33:02.903Z,66.30
2023-02-23T11:34:03.017Z,66.30
2023-02-23T11:35:03.039Z,66.30
2023-02-23T11:36:02.750Z,66.30
2023-02-23T11:37:03.457Z,60.70
2023-02-23T11:38:05.426Z,60.70
2023-02-23T11:39:03.549Z,60.70
2023-02-23T11:40:03.315Z,60.70
2023-02-23T11:41:03.185Z,60.70
2023-02-23T11:42:02.880Z,59.20
2023-02-23T11:43:02.678Z,59.20
2023-02-23T11:44:05.573Z,59.20
2023-02-23T11:45:02.444Z,59.20
2023-02-23T11:46:03.295Z,59.20
2023-02-23T11:47:03.313Z,58.60
2023-02-23T11:48:03.126Z,58.60
2023-02-23T11:49:03.233Z,58.60
2023-02-23T11:50:02.767Z,58.60
2023-02-23T11:51:02.699Z,58.60
2023-02-23T11:52:03.538Z,59.60
2023-02-23T11:53:03.117Z,59.60
2023-02-23T11:54:05.461Z,59.60
2023-02-23T11:55:03.151Z,59.60
2023-02-23T11:56:03.372Z,59.60
2023-02-23T11:57:02.958Z,56.90
2023-02-23T11:58:02.254Z,56.90
2023-02-23T11:59:02.532Z,56.90
2023-02-23T12:00:02.661Z,56.90
2023-02-23T12:01:02.715Z,56.90
2023-02-23T12:02:01.697Z,55.90
2023-02-23T12:03:01.983Z,55.90
2023-02-23T12:04:02.259Z,55.90
2023-02-23T12:05:01.971Z,55.90
2023-02-23T12:06:01.842Z,55.90
2023-02-23T12:07:02.258Z,54.20
2023-02-23T12:08:02.729Z,54.20
2023-02-23T12:09:02.323Z,54.20
2023-02-23T12:10:02.272Z,54.20
2023-02-23T12:11:02.873Z,54.20
2023-02-23T12:12:02.609Z,60.30
2023-02-23T12:13:02.223Z,60.30
2023-02-23T12:14:02.001Z,60.30
2023-02-23T12:15:01.989Z,60.30
2023-02-23T12:16:02.242Z,60.30
2023-02-23T12:17:04.246Z,54.50
2023-02-23T12:18:01.614Z,54.50
2023-02-23T12:19:01.497Z,54.50
2023-02-23T12:20:01.990Z,54.50
2023-02-23T12:21:01.852Z,54.50
2023-02-23T12:22:01.965Z,54.20
2023-02-23T12:23:02.111Z,54.20
2023-02-23T12:24:01.850Z,54.20
2023-02-23T12:25:01.788Z,54.20
2023-02-23T12:26:01.683Z,54.20
2023-02-23T12:27:01.723Z,55.20
2023-02-23T12:28:16.859Z,55.20
2023-02-23T12:29:02.627Z,55.20
2023-02-23T12:30:02.564Z,55.20
2023-02-23T12:31:02.685Z,55.20
2023-02-23T12:32:02.836Z,57.10
2023-02-23T12:33:02.929Z,57.10
2023-02-23T12:34:02.450Z,57.10
2023-02-23T12:35:02.441Z,57.10
2023-02-23T12:36:02.599Z,57.10
2023-02-23T12:37:02.694Z,56.30
2023-02-23T12:38:02.832Z,56.30
2023-02-23T12:39:02.408Z,56.30
2023-02-23T12:40:02.445Z,56.30
2023-02-23T12:41:03.062Z,56.30
2023-02-23T12:42:02.460Z,50.80
2023-02-23T12:43:02.487Z,50.80
2023-02-23T12:44:02.378Z,50.80
2023-02-23T12:45:01.929Z,50.80
2023-02-23T12:46:02.505Z,50.80
2023-02-23T12:47:01.939Z,51.50
2023-02-23T12:48:02.913Z,51.50
2023-02-23T12:49:02.336Z,51.50
2023-02-23T12:50:02.901Z,51.50
2023-02-23T12:51:03.034Z,51.50
2023-02-23T12:52:02.803Z,51.00